CheckWX is a tool to help pilots better visualize weather data.  It is not intended as a substitute for an official pre-flight weather briefing.

06:04:18 UTC

EBCV METAR
Chièvres Air Base Airport
Chièvres, Belgium
Current

31 mins ago

EBCV 200533Z AUTO 19005KT 3400 BR FEW130/// 02/01 Q1022 YLO
Observed
Feb-20 @ 05:33 UTC
Wind
  • 190° at 5 KTS
Visibility
3,396 meters
Flight Rules
IFR
Conditions
Mist
Cloud Levels
  • Few at 13,000' AGL
Temperature
C / 36°F
Dewpoint
C / 34°F
Humidity
93%
Altimeter
30.18" Hg
Pressure
1021.92 hPa
Previous

1 hour ago

EBCV 200455Z AUTO 19006KT 4900 FEW200/// 02/01 Q1022 GRN
Observed
Feb-20 @ 04:55 UTC
Wind
  • 190° at 6 KTS
Visibility
4,892 meters
Flight Rules
MVFR
Cloud Levels
  • Few at 20,000' AGL
Temperature
C / 36°F
Dewpoint
C / 34°F
Humidity
93%
Altimeter
30.18" Hg
Pressure
1021.92 hPa
Previous

1 hour ago

EBCV 200452Z AUTO 19006KT 4800 NCD 02/01 Q1022 GRN
Observed
Feb-20 @ 04:52 UTC
Wind
  • 190° at 6 KTS
Visibility
4,796 meters
Flight Rules
IFR
Cloud Levels
  • Clear skies
Temperature
C / 36°F
Dewpoint
C / 34°F
Humidity
93%
Altimeter
30.18" Hg
Pressure
1021.92 hPa